Time;durP1;ratioP1;P1;durP2;ratioP2;P2;SDS_P1;SDS_P2;PMS_P1;PMS_P2;Temp;Humidity;BMP_temperature;BMP_pressure;BME280_temperature;BME280_humidity;BME280_pressure;Samples;Min_cycle;Max_cycle;Signal;HPM_P1;HPM_P2
2023/07/17 00:00:15;;;;;;;13.90;2.53;;;;;;;;;;5090706;28;20060;-72
2023/07/17 00:02:41;;;;;;;12.40;2.85;;;;;;;;;;5091474;28;20048;-72
2023/07/17 00:05:08;;;;;;;13.63;3.10;;;;;;;;;;5089987;28;20043;-72
2023/07/17 00:07:34;;;;;;;12.73;3.03;;;;;;;;;;5093579;28;20036;-71
2023/07/17 00:10:01;;;;;;;9.07;2.75;;;;;;;;;;5077257;28;20040;-73
2023/07/17 00:12:27;;;;;;;9.50;2.50;;;;;;;;;;5094022;28;20028;-74
2023/07/17 00:14:53;;;;;;;10.27;2.80;;;;;;;;;;5094725;28;20404;-70
2023/07/17 00:17:19;;;;;;;8.05;2.33;;;;;;;;;;5077078;28;20378;-73
2023/07/17 00:19:53;;;;;;;7.93;2.33;;;;;;;;;;5093762;28;20148;-73
2023/07/17 00:22:19;;;;;;;7.35;2.35;;;;;;;;;;5093673;28;20039;-75
2023/07/17 00:24:45;;;;;;;7.65;2.60;;;;;;;;;;5094203;28;20051;-74
2023/07/17 00:27:11;;;;;;;8.10;2.63;;;;;;;;;;5095228;28;20036;-75
2023/07/17 00:29:37;;;;;;;10.50;2.50;;;;;;;;;;5093764;28;20047;-75
2023/07/17 00:32:03;;;;;;;8.43;2.50;;;;;;;;;;5094113;28;20389;-75
2023/07/17 00:34:29;;;;;;;7.68;2.60;;;;;;;;;;5092754;28;20116;-75
2023/07/17 00:36:55;;;;;;;11.45;3.17;;;;;;;;;;5094430;28;20040;-75
2023/07/17 00:39:23;;;;;;;12.13;3.22;;;;;;;;;;5076471;28;20052;-75
2023/07/17 00:41:50;;;;;;;10.27;3.05;;;;;;;;;;5093962;28;20048;-75
2023/07/17 00:44:16;;;;;;;8.63;2.90;;;;;;;;;;5094139;28;20044;-75
2023/07/17 00:46:42;;;;;;;10.85;2.70;;;;;;;;;;5093165;28;20048;-75
2023/07/17 00:49:09;;;;;;;10.65;2.85;;;;;;;;;;5093335;28;20086;-75
2023/07/17 00:51:35;;;;;;;7.80;2.60;;;;;;;;;;5093322;28;20152;-75
2023/07/17 00:54:01;;;;;;;8.13;2.60;;;;;;;;;;5093941;28;20382;-75
2023/07/17 00:56:28;;;;;;;9.57;2.60;;;;;;;;;;5075820;28;20048;-75
2023/07/17 00:58:55;;;;;;;7.45;2.33;;;;;;;;;;5093181;28;20067;-75
2023/07/17 01:01:22;;;;;;;5.65;2.55;;;;;;;;;;5076553;28;20050;-75
2023/07/17 01:03:48;;;;;;;7.07;2.35;;;;;;;;;;5092534;28;20127;-75
2023/07/17 01:06:14;;;;;;;7.28;2.88;;;;;;;;;;5093521;28;20044;-75
2023/07/17 01:08:40;;;;;;;7.95;2.85;;;;;;;;;;5076131;28;20040;-75
2023/07/17 01:11:06;;;;;;;6.20;2.17;;;;;;;;;;5076045;28;20043;-75
2023/07/17 01:13:42;;;;;;;12.32;3.05;;;;;;;;;;5094268;28;20044;-75
2023/07/17 01:16:08;;;;;;;7.15;2.10;;;;;;;;;;5093041;28;20164;-75
2023/07/17 01:18:34;;;;;;;5.35;2.10;;;;;;;;;;5092148;28;20091;-74
2023/07/17 01:21:00;;;;;;;6.55;2.55;;;;;;;;;;5093201;28;20406;-75
2023/07/17 01:23:26;;;;;;;7.25;2.90;;;;;;;;;;5092791;28;20042;-75
2023/07/17 01:25:54;;;;;;;9.00;4.53;;;;;;;;;;5094150;28;20036;-75
2023/07/17 01:28:21;;;;;;;11.23;4.35;;;;;;;;;;5076342;28;20531;-75
2023/07/17 01:30:47;;;;;;;12.85;5.47;;;;;;;;;;5092761;28;20036;-76
2023/07/17 01:33:13;;;;;;;16.15;6.50;;;;;;;;;;5092995;28;20039;-76
2023/07/17 01:35:39;;;;;;;14.48;6.78;;;;;;;;;;5091753;28;20085;-75
2023/07/17 01:38:05;;;;;;;12.52;6.53;;;;;;;;;;5059663;28;20040;-77
2023/07/17 01:40:31;;;;;;;15.27;6.53;;;;;;;;;;5075540;28;20051;-77
2023/07/17 01:42:57;;;;;;;18.08;6.90;;;;;;;;;;5091174;28;20058;-75
2023/07/17 01:45:23;;;;;;;13.05;5.80;;;;;;;;;;5091581;28;20508;-76
2023/07/17 01:47:50;;;;;;;10.23;5.47;;;;;;;;;;5092215;28;20393;-75
2023/07/17 01:50:16;;;;;;;11.82;4.88;;;;;;;;;;5071275;28;20060;-75
2023/07/17 01:52:42;;;;;;;13.98;4.60;;;;;;;;;;5084426;28;20124;-75
2023/07/17 01:55:08;;;;;;;10.95;4.30;;;;;;;;;;5092493;28;20488;-75
2023/07/17 01:57:34;;;;;;;10.48;3.90;;;;;;;;;;5093435;28;20093;-77
2023/07/17 02:00:01;;;;;;;10.20;3.90;;;;;;;;;;5093594;28;20089;-77
2023/07/17 02:02:27;;;;;;;11.18;2.97;;;;;;;;;;5088841;28;20051;-77
2023/07/17 02:04:53;;;;;;;10.10;2.90;;;;;;;;;;5092313;28;20169;-76
2023/07/17 02:07:19;;;;;;;9.45;2.80;;;;;;;;;;5089693;28;20044;-77
2023/07/17 02:09:45;;;;;;;8.93;2.90;;;;;;;;;;5091469;28;20036;-76
2023/07/17 02:12:11;;;;;;;7.20;2.65;;;;;;;;;;5093168;28;20047;-77
2023/07/17 02:14:37;;;;;;;7.15;2.25;;;;;;;;;;5091622;28;20554;-77
2023/07/17 02:17:03;;;;;;;10.35;2.80;;;;;;;;;;5091638;28;20051;-77
2023/07/17 02:19:29;;;;;;;7.88;2.60;;;;;;;;;;5091463;28;20055;-77
2023/07/17 02:21:55;;;;;;;12.02;2.67;;;;;;;;;;5091135;28;20130;-77
2023/07/17 02:24:21;;;;;;;7.47;2.50;;;;;;;;;;5091503;28;20061;-77
2023/07/17 02:26:48;;;;;;;8.80;2.55;;;;;;;;;;5091277;28;20051;-76
2023/07/17 02:29:14;;;;;;;7.53;2.60;;;;;;;;;;5091006;28;20062;-77
2023/07/17 02:31:40;;;;;;;7.15;2.63;;;;;;;;;;5092531;28;20040;-77
2023/07/17 02:34:07;;;;;;;7.05;2.80;;;;;;;;;;5091597;28;20498;-77
2023/07/17 02:36:33;;;;;;;8.00;2.30;;;;;;;;;;5091948;28;20101;-76
2023/07/17 02:38:59;;;;;;;7.45;2.17;;;;;;;;;;5090958;28;20052;-77
2023/07/17 02:41:25;;;;;;;8.60;2.42;;;;;;;;;;5091394;28;20565;-76
2023/07/17 02:43:51;;;;;;;7.93;2.80;;;;;;;;;;5074292;28;20040;-76
2023/07/17 02:46:17;;;;;;;7.03;2.80;;;;;;;;;;5091541;28;20481;-76
2023/07/17 02:48:43;;;;;;;9.65;3.25;;;;;;;;;;5092139;28;20534;-77
2023/07/17 02:51:09;;;;;;;10.57;2.80;;;;;;;;;;5073648;28;20036;-76
2023/07/17 02:53:35;;;;;;;8.90;2.75;;;;;;;;;;5091265;28;20036;-77
2023/07/17 02:56:02;;;;;;;8.90;2.67;;;;;;;;;;5090974;28;20047;-77
2023/07/17 02:58:29;;;;;;;7.82;2.45;;;;;;;;;;5091331;28;20046;-77
2023/07/17 03:00:55;;;;;;;11.48;3.10;;;;;;;;;;5090871;28;20080;-77
2023/07/17 03:03:21;;;;;;;8.32;2.70;;;;;;;;;;5091102;28;20544;-76
2023/07/17 03:05:47;;;;;;;8.80;2.90;;;;;;;;;;5090458;28;20083;-76
2023/07/17 03:08:13;;;;;;;9.85;2.70;;;;;;;;;;5090859;28;20111;-77
2023/07/17 03:10:40;;;;;;;10.05;2.90;;;;;;;;;;5090941;28;20119;-77
2023/07/17 03:13:06;;;;;;;11.48;2.72;;;;;;;;;;5073860;28;20044;-76
2023/07/17 03:15:32;;;;;;;12.18;2.80;;;;;;;;;;5091178;28;20040;-76
2023/07/17 03:17:58;;;;;;;9.85;2.78;;;;;;;;;;5090310;28;20056;-76
2023/07/17 03:20:27;;;;;;;12.48;3.13;;;;;;;;;;5073483;28;20051;-76
2023/07/17 03:22:53;;;;;;;7.97;2.65;;;;;;;;;;5090539;28;20100;-77
2023/07/17 03:25:19;;;;;;;9.32;3.05;;;;;;;;;;5091014;28;20044;-77
2023/07/17 03:27:45;;;;;;;12.40;2.83;;;;;;;;;;5090112;28;20043;-76
2023/07/17 03:30:11;;;;;;;9.60;2.83;;;;;;;;;;5090673;28;20048;-76
2023/07/17 03:32:38;;;;;;;11.60;2.80;;;;;;;;;;5074198;28;20040;-76
2023/07/17 03:35:05;;;;;;;9.57;3.03;;;;;;;;;;5091448;28;20059;-77
2023/07/17 03:37:31;;;;;;;12.18;2.97;;;;;;;;;;5090644;28;20044;-74
2023/07/17 03:39:57;;;;;;;12.35;3.13;;;;;;;;;;5073761;28;20448;-74
2023/07/17 03:42:23;;;;;;;9.50;2.53;;;;;;;;;;5094495;28;20081;-74
2023/07/17 03:44:49;;;;;;;9.32;2.72;;;;;;;;;;5061670;28;20472;-74
2023/07/17 03:47:16;;;;;;;11.90;2.88;;;;;;;;;;5094996;28;20431;-75
2023/07/17 03:49:42;;;;;;;12.43;3.33;;;;;;;;;;5094882;28;20051;-74
2023/07/17 03:52:08;;;;;;;9.07;2.67;;;;;;;;;;5094815;28;20558;-74
2023/07/17 03:54:34;;;;;;;10.95;3.10;;;;;;;;;;5094239;28;20150;-75
2023/07/17 03:57:00;;;;;;;10.23;3.00;;;;;;;;;;5077674;28;20536;-75
2023/07/17 03:59:26;;;;;;;9.70;3.13;;;;;;;;;;5094901;28;20406;-74
2023/07/17 04:01:52;;;;;;;11.52;3.20;;;;;;;;;;5091976;28;20044;-75
2023/07/17 04:04:18;;;;;;;9.30;2.92;;;;;;;;;;5093841;28;20048;-73
2023/07/17 04:06:45;;;;;;;9.45;3.10;;;;;;;;;;5093724;28;20165;-75
2023/07/17 04:09:11;;;;;;;10.13;2.85;;;;;;;;;;5077247;28;20048;-74
2023/07/17 04:11:37;;;;;;;11.57;2.70;;;;;;;;;;5095562;28;20485;-75
2023/07/17 04:14:03;;;;;;;12.38;3.13;;;;;;;;;;5094315;28;20050;-74
2023/07/17 04:16:30;;;;;;;11.00;2.83;;;;;;;;;;5094351;28;20032;-74
2023/07/17 04:18:56;;;;;;;10.40;3.13;;;;;;;;;;5093190;28;20048;-76
2023/07/17 04:21:22;;;;;;;11.05;2.90;;;;;;;;;;5094080;28;20051;-76
2023/07/17 04:23:50;;;;;;;8.80;2.97;;;;;;;;;;5077415;28;20480;-76
2023/07/17 04:26:17;;;;;;;15.35;3.15;;;;;;;;;;5094303;28;20052;-77
2023/07/17 04:28:43;;;;;;;10.32;2.50;;;;;;;;;;5077025;28;20040;-76
2023/07/17 04:31:09;;;;;;;7.82;2.70;;;;;;;;;;5076613;28;20044;-75
2023/07/17 04:33:35;;;;;;;7.53;2.13;;;;;;;;;;5094116;28;20040;-79
2023/07/17 04:36:06;;;;;;;8.00;2.53;;;;;;;;;;5093526;28;20044;-76
2023/07/17 04:38:32;;;;;;;9.68;2.30;;;;;;;;;;5093679;28;20048;-77
2023/07/17 04:40:58;;;;;;;7.43;2.28;;;;;;;;;;5093459;28;20043;-76
2023/07/17 04:43:27;;;;;;;9.60;2.40;;;;;;;;;;5093481;28;20032;-76
2023/07/17 04:45:53;;;;;;;11.95;2.80;;;;;;;;;;5093593;28;20481;-77
2023/07/17 04:48:19;;;;;;;9.02;2.40;;;;;;;;;;5095055;28;20412;-76
2023/07/17 04:50:46;;;;;;;10.27;2.63;;;;;;;;;;5092842;28;20048;-76
2023/07/17 04:53:12;;;;;;;7.65;2.40;;;;;;;;;;5092470;28;20043;-76
2023/07/17 04:55:38;;;;;;;12.57;2.63;;;;;;;;;;5093199;28;20036;-76
2023/07/17 04:58:04;;;;;;;11.32;2.60;;;;;;;;;;5092933;28;20036;-76
2023/07/17 05:00:33;;;;;;;8.23;2.97;;;;;;;;;;5093827;28;20044;-76
2023/07/17 05:02:59;;;;;;;11.50;3.35;;;;;;;;;;5093254;28;20159;-75
2023/07/17 05:05:25;;;;;;;10.43;2.75;;;;;;;;;;5076645;28;20055;-76
2023/07/17 05:07:51;;;;;;;11.40;2.70;;;;;;;;;;5092902;28;20283;-76
2023/07/17 05:10:18;;;;;;;12.30;3.13;;;;;;;;;;5092912;28;20047;-76
2023/07/17 05:12:44;;;;;;;10.98;3.03;;;;;;;;;;5093515;28;20496;-76
2023/07/17 05:15:10;;;;;;;8.88;3.08;;;;;;;;;;5092751;28;20040;-75
2023/07/17 05:17:36;;;;;;;14.18;3.50;;;;;;;;;;5093079;28;20079;-76
2023/07/17 05:20:04;;;;;;;11.52;3.20;;;;;;;;;;5092710;28;20404;-75
2023/07/17 05:22:31;;;;;;;16.27;3.20;;;;;;;;;;5092719;28;20075;-76
2023/07/17 05:24:57;;;;;;;16.20;3.90;;;;;;;;;;5092924;28;20073;-77
2023/07/17 05:27:23;;;;;;;12.50;3.40;;;;;;;;;;5093859;28;20043;-76
2023/07/17 05:29:49;;;;;;;12.43;4.03;;;;;;;;;;5092822;28;20044;-75
2023/07/17 05:32:15;;;;;;;10.60;3.33;;;;;;;;;;5092420;28;20450;-76
2023/07/17 05:34:41;;;;;;;17.92;3.58;;;;;;;;;;5092359;28;20496;-76
2023/07/17 05:37:07;;;;;;;13.35;4.03;;;;;;;;;;5092655;28;20429;-75
2023/07/17 05:39:33;;;;;;;10.45;3.13;;;;;;;;;;5092776;28;20082;-76
2023/07/17 05:42:00;;;;;;;10.77;2.97;;;;;;;;;;5076001;28;20055;-75
2023/07/17 05:44:26;;;;;;;14.30;3.42;;;;;;;;;;5089723;28;20492;-76
2023/07/17 05:46:52;;;;;;;12.80;4.30;;;;;;;;;;5075454;28;20059;-76
2023/07/17 05:49:18;;;;;;;14.65;3.42;;;;;;;;;;5092580;28;20036;-76
2023/07/17 05:51:44;;;;;;;10.93;3.60;;;;;;;;;;5093933;28;20036;-76
2023/07/17 05:54:10;;;;;;;9.80;3.47;;;;;;;;;;5091896;28;20047;-76
2023/07/17 05:56:36;;;;;;;9.82;3.17;;;;;;;;;;5092188;28;20044;-77
2023/07/17 05:59:02;;;;;;;10.68;3.33;;;;;;;;;;5092333;28;20048;-76
2023/07/17 06:01:28;;;;;;;12.02;3.50;;;;;;;;;;5092147;28;20548;-76
2023/07/17 06:03:54;;;;;;;10.13;3.35;;;;;;;;;;5074597;28;20048;-76
2023/07/17 06:06:20;;;;;;;8.35;3.10;;;;;;;;;;5091621;28;20082;-76
2023/07/17 06:08:46;;;;;;;10.30;3.40;;;;;;;;;;5091721;28;20040;-76
2023/07/17 06:11:12;;;;;;;10.23;3.70;;;;;;;;;;5093144;28;20040;-76
2023/07/17 06:13:38;;;;;;;10.00;3.20;;;;;;;;;;5093604;28;20465;-76
2023/07/17 06:16:04;;;;;;;9.50;3.70;;;;;;;;;;5092010;28;20097;-74
2023/07/17 06:18:30;;;;;;;9.95;3.70;;;;;;;;;;5092628;28;20056;-75
2023/07/17 06:20:57;;;;;;;10.10;3.40;;;;;;;;;;5091845;28;20457;-75
2023/07/17 06:23:23;;;;;;;8.40;3.55;;;;;;;;;;5092938;28;20040;-75
2023/07/17 06:25:56;;;;;;;9.88;3.22;;;;;;;;;;5141807;27;1281775;-74
2023/07/17 06:28:22;;;;;;;9.13;3.47;;;;;;;;;;5153148;27;20047;-75
2023/07/17 06:30:48;;;;;;;11.80;3.50;;;;;;;;;;5121670;27;20050;-74
2023/07/17 06:33:14;;;;;;;14.18;3.92;;;;;;;;;;5139083;27;20117;-74
2023/07/17 06:35:40;;;;;;;11.50;3.83;;;;;;;;;;5138364;27;20047;-73
2023/07/17 06:38:07;;;;;;;17.67;3.78;;;;;;;;;;5153592;27;20395;-75
2023/07/17 06:40:34;;;;;;;13.95;4.00;;;;;;;;;;5138110;27;20038;-75
2023/07/17 06:43:01;;;;;;;10.27;4.10;;;;;;;;;;5153525;27;20380;-75
2023/07/17 06:45:27;;;;;;;11.90;4.15;;;;;;;;;;5152557;27;20048;-75
2023/07/17 06:47:53;;;;;;;11.05;3.60;;;;;;;;;;5171354;27;20479;-74
2023/07/17 06:50:19;;;;;;;10.73;3.60;;;;;;;;;;5159845;27;20043;-72
2023/07/17 06:52:45;;;;;;;12.23;4.10;;;;;;;;;;5150708;27;20034;-73
2023/07/17 06:55:11;;;;;;;10.27;3.72;;;;;;;;;;5125937;27;20116;-73
2023/07/17 06:57:37;;;;;;;11.57;3.88;;;;;;;;;;5148356;27;20042;-74
2023/07/17 07:00:05;;;;;;;10.55;3.90;;;;;;;;;;5153084;27;20145;-73
2023/07/17 07:02:32;;;;;;;12.88;4.05;;;;;;;;;;5143567;27;20039;-74
2023/07/17 07:04:58;;;;;;;11.10;4.05;;;;;;;;;;5152588;27;20532;-74
2023/07/17 07:07:24;;;;;;;10.82;4.65;;;;;;;;;;5151899;27;20034;-75
2023/07/17 07:09:50;;;;;;;13.57;4.72;;;;;;;;;;5170967;27;20041;-72
2023/07/17 07:12:16;;;;;;;13.45;3.83;;;;;;;;;;5142148;27;20043;-73
2023/07/17 07:14:42;;;;;;;13.35;4.50;;;;;;;;;;5148654;27;20073;-73
2023/07/17 07:17:08;;;;;;;13.98;4.30;;;;;;;;;;5165235;27;20510;-74
2023/07/17 07:19:34;;;;;;;11.23;4.38;;;;;;;;;;5144780;27;20042;-74
2023/07/17 07:22:00;;;;;;;11.95;4.53;;;;;;;;;;5148736;27;20073;-76
2023/07/17 07:24:27;;;;;;;20.77;5.53;;;;;;;;;;5135295;27;20061;-83
2023/07/17 07:26:53;;;;;;;14.23;4.43;;;;;;;;;;5138579;27;20045;-77
2023/07/17 07:29:19;;;;;;;11.65;4.45;;;;;;;;;;5164422;27;20403;-78
2023/07/17 07:31:45;;;;;;;17.92;6.10;;;;;;;;;;5114795;27;20046;-78
2023/07/17 07:34:11;;;;;;;12.98;4.90;;;;;;;;;;5117906;27;20091;-78
2023/07/17 07:36:37;;;;;;;18.58;5.88;;;;;;;;;;5115268;27;20043;-77
2023/07/17 07:39:05;;;;;;;14.55;4.70;;;;;;;;;;5144843;27;20073;-75
2023/07/17 07:41:33;;;;;;;13.50;5.07;;;;;;;;;;5130380;27;20114;-75
2023/07/17 07:43:59;;;;;;;16.73;5.55;;;;;;;;;;5127784;27;20070;-76
2023/07/17 07:46:25;;;;;;;13.40;5.18;;;;;;;;;;5137446;27;20031;-75
2023/07/17 07:48:51;;;;;;;18.63;6.40;;;;;;;;;;5127494;27;20035;-76
2023/07/17 07:51:17;;;;;;;15.52;6.18;;;;;;;;;;5134355;27;20049;-76
2023/07/17 07:53:43;;;;;;;15.77;5.57;;;;;;;;;;5156118;27;20062;-76
2023/07/17 07:56:09;;;;;;;14.63;5.68;;;;;;;;;;5137960;27;20063;-76
2023/07/17 07:58:35;;;;;;;14.95;5.13;;;;;;;;;;5136800;27;20031;-76
2023/07/17 08:01:02;;;;;;;16.25;5.93;;;;;;;;;;5136106;27;20034;-77
2023/07/17 08:03:29;;;;;;;11.45;5.30;;;;;;;;;;5116942;27;20127;-76
2023/07/17 08:05:55;;;;;;;13.85;5.40;;;;;;;;;;5148863;27;20518;-76
2023/07/17 08:08:22;;;;;;;12.38;5.05;;;;;;;;;;5126071;27;20039;-76
2023/07/17 08:10:51;;;;;;;12.65;4.68;;;;;;;;;;5120362;27;20047;-77
2023/07/17 08:13:17;;;;;;;13.32;4.90;;;;;;;;;;5129000;27;20074;-76
2023/07/17 08:15:43;;;;;;;13.38;4.50;;;;;;;;;;5131098;27;20060;-75
2023/07/17 08:18:09;;;;;;;10.77;4.00;;;;;;;;;;5124703;27;20050;-77
2023/07/17 08:20:36;;;;;;;13.63;4.88;;;;;;;;;;5135119;27;20043;-76
2023/07/17 08:23:02;;;;;;;14.93;4.95;;;;;;;;;;5132912;27;20089;-77
2023/07/17 08:25:28;;;;;;;14.38;4.13;;;;;;;;;;5128768;27;20503;-75
2023/07/17 08:27:54;;;;;;;8.68;3.13;;;;;;;;;;5132708;27;20058;-75
2023/07/17 08:30:21;;;;;;;8.13;3.13;;;;;;;;;;5136509;27;20382;-76
2023/07/17 08:32:47;;;;;;;9.38;3.67;;;;;;;;;;5135402;27;20507;-75
2023/07/17 08:35:13;;;;;;;9.23;3.40;;;;;;;;;;5130009;27;20098;-74
2023/07/17 08:37:39;;;;;;;15.07;4.22;;;;;;;;;;5130921;27;20117;-74
2023/07/17 08:40:05;;;;;;;10.05;3.47;;;;;;;;;;5146527;27;20046;-75
2023/07/17 08:42:33;;;;;;;7.63;3.10;;;;;;;;;;5109491;27;20039;-76
2023/07/17 08:45:00;;;;;;;8.20;3.10;;;;;;;;;;5102328;27;20078;-75
2023/07/17 08:47:26;;;;;;;10.13;2.72;;;;;;;;;;5118374;27;20039;-75
2023/07/17 08:49:52;;;;;;;6.03;2.40;;;;;;;;;;5149828;27;20075;-75
2023/07/17 08:52:19;;;;;;;7.53;2.72;;;;;;;;;;5139092;27;20042;-75
2023/07/17 08:54:45;;;;;;;9.48;2.97;;;;;;;;;;5150781;27;20483;-74
2023/07/17 08:57:11;;;;;;;9.68;2.42;;;;;;;;;;5153060;27;20133;-75
2023/07/17 08:59:37;;;;;;;4.97;2.50;;;;;;;;;;5115448;27;20551;-74
2023/07/17 09:02:04;;;;;;;7.30;2.63;;;;;;;;;;5153985;27;20041;-75
2023/07/17 09:04:31;;;;;;;6.75;2.60;;;;;;;;;;5135945;27;20043;-75
2023/07/17 09:06:57;;;;;;;7.93;2.50;;;;;;;;;;5136124;27;20042;-75
2023/07/17 09:09:23;;;;;;;8.45;2.40;;;;;;;;;;5154173;27;20034;-74
2023/07/17 09:12:09;;;;;;;6.30;2.58;;;;;;;;;;5123813;27;20433;-75
2023/07/17 09:14:36;;;;;;;7.57;2.30;;;;;;;;;;5154277;27;20089;-75
2023/07/17 09:17:07;;;;;;;6.55;2.85;;;;;;;;;;5135958;27;20087;-73
2023/07/17 09:19:34;;;;;;;6.80;2.38;;;;;;;;;;5135917;27;20039;-74
2023/07/17 09:22:02;;;;;;;7.95;2.65;;;;;;;;;;5141559;27;20039;-73
2023/07/17 09:24:28;;;;;;;7.75;2.60;;;;;;;;;;5109364;27;20058;-74
2023/07/17 09:26:55;;;;;;;8.70;2.97;;;;;;;;;;5111884;27;20038;-74
2023/07/17 09:29:25;;;;;;;8.52;2.63;;;;;;;;;;5123049;27;20435;-73
2023/07/17 09:31:51;;;;;;;9.40;2.88;;;;;;;;;;5134080;27;20527;-74
2023/07/17 09:34:18;;;;;;;7.47;2.45;;;;;;;;;;5135805;27;20042;-74
2023/07/17 09:36:44;;;;;;;7.75;2.42;;;;;;;;;;5132381;27;20049;-74
2023/07/17 09:39:11;;;;;;;8.13;2.53;;;;;;;;;;5123839;27;20078;-74
2023/07/17 09:41:37;;;;;;;8.75;2.53;;;;;;;;;;5143288;27;20100;-72
2023/07/17 09:44:03;;;;;;;5.53;2.25;;;;;;;;;;5110437;27;20039;-75
2023/07/17 09:46:30;;;;;;;7.38;2.47;;;;;;;;;;5135779;27;20035;-75
2023/07/17 09:48:56;;;;;;;8.13;2.70;;;;;;;;;;5116104;27;20077;-72
2023/07/17 09:51:23;;;;;;;8.13;2.83;;;;;;;;;;5144479;27;20364;-74
2023/07/17 09:53:49;;;;;;;7.07;2.42;;;;;;;;;;5144680;27;20039;-72
2023/07/17 09:56:16;;;;;;;10.93;2.65;;;;;;;;;;5153531;27;20030;-74
2023/07/17 09:58:46;;;;;;;7.03;2.50;;;;;;;;;;5153713;27;20026;-74
2023/07/17 10:01:15;;;;;;;7.10;2.42;;;;;;;;;;5127374;27;20039;-74
2023/07/17 10:03:44;;;;;;;9.68;2.60;;;;;;;;;;5117097;27;20034;-73
2023/07/17 10:06:11;;;;;;;7.43;2.63;;;;;;;;;;5152488;27;20092;-74
2023/07/17 10:08:38;;;;;;;6.00;2.40;;;;;;;;;;5123849;27;20070;-76
2023/07/17 10:11:04;;;;;;;8.65;2.67;;;;;;;;;;5153083;27;20027;-74
2023/07/17 10:13:30;;;;;;;8.18;2.67;;;;;;;;;;5130560;27;20088;-76
2023/07/17 10:15:57;;;;;;;8.05;2.80;;;;;;;;;;5135066;27;20039;-75
2023/07/17 10:18:24;;;;;;;5.22;2.47;;;;;;;;;;5131122;27;20087;-73
2023/07/17 10:20:54;;;;;;;10.05;2.70;;;;;;;;;;5146570;27;20047;-75
2023/07/17 10:23:24;;;;;;;7.85;2.40;;;;;;;;;;5125082;27;20484;-75
2023/07/17 10:25:51;;;;;;;6.43;2.17;;;;;;;;;;5130559;27;20050;-74
2023/07/17 10:28:29;;;;;;;8.23;2.45;;;;;;;;;;5143064;27;20042;-72
2023/07/17 10:30:55;;;;;;;6.18;2.20;;;;;;;;;;5111134;27;20045;-77
2023/07/17 10:33:22;;;;;;;7.75;2.13;;;;;;;;;;5153664;27;20113;-73
2023/07/17 10:36:00;;;;;;;8.05;2.80;;;;;;;;;;5145332;27;20125;-74
2023/07/17 10:38:41;;;;;;;7.43;2.40;;;;;;;;;;5130536;27;20070;-76
2023/07/17 10:41:13;;;;;;;11.98;3.17;;;;;;;;;;5134335;27;20053;-76
2023/07/17 10:43:52;;;;;;;7.72;2.30;;;;;;;;;;5103250;27;20050;-70
2023/07/17 10:46:19;;;;;;;6.97;2.40;;;;;;;;;;5150449;27;20175;-69
2023/07/17 10:48:45;;;;;;;6.43;2.00;;;;;;;;;;5125223;27;20031;-71
2023/07/17 10:51:11;;;;;;;7.35;2.17;;;;;;;;;;5153472;27;20120;-70
2023/07/17 10:53:37;;;;;;;6.72;2.50;;;;;;;;;;5115661;27;20093;-71
2023/07/17 10:56:03;;;;;;;7.20;2.10;;;;;;;;;;5133359;27;20134;-71
2023/07/17 10:58:29;;;;;;;7.47;2.10;;;;;;;;;;5110120;27;20031;-70
2023/07/17 11:00:55;;;;;;;5.85;2.65;;;;;;;;;;5134454;27;20038;-69
2023/07/17 11:03:22;;;;;;;8.77;2.40;;;;;;;;;;5125984;28;20034;-68
2023/07/17 11:05:49;;;;;;;6.22;2.45;;;;;;;;;;5147698;27;20099;-74
2023/07/17 11:08:15;;;;;;;6.65;2.25;;;;;;;;;;5134063;27;20047;-74
2023/07/17 11:10:42;;;;;;;6.72;2.45;;;;;;;;;;5147107;27;20383;-74
2023/07/17 11:13:09;;;;;;;6.32;2.33;;;;;;;;;;5155790;27;20498;-75
2023/07/17 11:15:35;;;;;;;6.57;2.55;;;;;;;;;;5129587;27;20039;-73
2023/07/17 11:18:03;;;;;;;5.53;2.22;;;;;;;;;;5138854;27;20074;-73
2023/07/17 11:20:30;;;;;;;8.07;2.40;;;;;;;;;;5154961;27;20143;-72
2023/07/17 11:22:56;;;;;;;7.10;2.30;;;;;;;;;;5137719;27;20041;-72
2023/07/17 11:25:25;;;;;;;6.47;2.30;;;;;;;;;;5155876;27;20521;-74
2023/07/17 11:27:52;;;;;;;6.25;2.20;;;;;;;;;;5129361;27;20092;-74
2023/07/17 11:30:20;;;;;;;7.45;1.95;;;;;;;;;;5139181;27;20043;-73
2023/07/17 11:33:06;;;;;;;7.13;2.20;;;;;;;;;;5138505;27;20448;-74
2023/07/17 11:35:39;;;;;;;7.82;2.40;;;;;;;;;;5155842;27;20056;-74
2023/07/17 11:38:10;;;;;;;6.40;2.28;;;;;;;;;;5128182;27;20074;-72
2023/07/17 11:40:55;;;;;;;6.18;1.60;;;;;;;;;;5133564;27;20042;-73
2023/07/17 11:43:38;;;;;;;5.70;2.20;;;;;;;;;;5137309;27;20495;-73
2023/07/17 11:46:07;;;;;;;6.30;2.15;;;;;;;;;;5154269;27;20272;-68
2023/07/17 11:48:35;;;;;;;5.43;2.10;;;;;;;;;;5153085;27;20042;-69
2023/07/17 11:51:05;;;;;;;6.50;2.10;;;;;;;;;;5137614;27;20372;-70
2023/07/17 11:53:31;;;;;;;6.90;2.03;;;;;;;;;;5156175;27;20034;-70
2023/07/17 11:55:59;;;;;;;7.82;2.20;;;;;;;;;;5137636;27;20642;-70
2023/07/17 11:58:26;;;;;;;6.75;2.15;;;;;;;;;;5129525;27;20055;-71
2023/07/17 12:00:56;;;;;;;7.22;1.90;;;;;;;;;;5131857;27;20038;-70
2023/07/17 12:03:22;;;;;;;5.43;1.90;;;;;;;;;;5132957;27;20034;-68
2023/07/17 12:05:48;;;;;;;4.68;1.70;;;;;;;;;;5153390;27;20372;-70
2023/07/17 12:08:15;;;;;;;6.50;1.90;;;;;;;;;;5152574;27;20058;-69
2023/07/17 12:10:41;;;;;;;5.25;1.60;;;;;;;;;;5155665;27;20034;-70
2023/07/17 12:13:07;;;;;;;5.30;1.90;;;;;;;;;;5144734;27;20041;-70
2023/07/17 12:15:34;;;;;;;4.22;1.50;;;;;;;;;;5149609;27;20191;-71
2023/07/17 12:18:00;;;;;;;5.03;1.55;;;;;;;;;;5128752;27;20047;-69
2023/07/17 12:20:26;;;;;;;6.47;1.77;;;;;;;;;;5151776;27;20038;-70
2023/07/17 12:22:55;;;;;;;4.97;1.90;;;;;;;;;;5152588;27;20505;-70
2023/07/17 12:25:21;;;;;;;6.35;1.85;;;;;;;;;;5132490;27;20131;-69
2023/07/17 12:27:48;;;;;;;4.50;1.88;;;;;;;;;;5155600;27;20039;-68
2023/07/17 12:30:15;;;;;;;5.75;1.70;;;;;;;;;;5154562;27;21594;-69
2023/07/17 12:32:41;;;;;;;5.80;1.95;;;;;;;;;;5152846;27;20041;-69
2023/07/17 12:35:08;;;;;;;5.57;1.90;;;;;;;;;;5154640;27;20042;-71
2023/07/17 12:37:34;;;;;;;5.68;1.98;;;;;;;;;;5129304;27;20103;-70
2023/07/17 12:40:00;;;;;;;6.90;1.92;;;;;;;;;;5150694;27;20039;-71
2023/07/17 12:42:26;;;;;;;5.57;1.88;;;;;;;;;;5134382;27;20039;-71
2023/07/17 12:44:53;;;;;;;5.82;1.60;;;;;;;;;;5124000;27;20050;-70
2023/07/17 12:47:19;;;;;;;5.70;1.60;;;;;;;;;;5136353;27;20457;-69
2023/07/17 12:49:45;;;;;;;7.22;1.88;;;;;;;;;;5148395;27;20494;-69
2023/07/17 12:52:11;;;;;;;6.25;2.03;;;;;;;;;;5146342;27;20035;-69
2023/07/17 12:54:37;;;;;;;5.38;1.88;;;;;;;;;;5122426;27;20443;-71
2023/07/17 12:57:04;;;;;;;4.45;1.70;;;;;;;;;;5155264;27;20035;-69
2023/07/17 12:59:30;;;;;;;6.25;1.92;;;;;;;;;;5132376;27;20057;-69
2023/07/17 13:01:56;;;;;;;6.78;2.17;;;;;;;;;;5155431;27;20167;-68
2023/07/17 13:04:23;;;;;;;7.28;2.28;;;;;;;;;;5154929;27;20491;-69
2023/07/17 13:06:49;;;;;;;5.20;1.85;;;;;;;;;;5149236;27;20031;-69
2023/07/17 13:09:15;;;;;;;6.47;2.30;;;;;;;;;;5126094;27;20359;-70
2023/07/17 13:11:41;;;;;;;6.65;2.20;;;;;;;;;;5133923;27;20037;-70
2023/07/17 13:14:08;;;;;;;6.80;2.10;;;;;;;;;;5134735;27;20518;-73
2023/07/17 13:16:35;;;;;;;13.32;2.70;;;;;;;;;;5153533;27;20387;-72
2023/07/17 13:19:01;;;;;;;7.95;2.35;;;;;;;;;;5127663;27;20073;-73
2023/07/17 13:21:27;;;;;;;5.20;2.00;;;;;;;;;;5146349;27;20126;-73
2023/07/17 13:23:54;;;;;;;18.85;3.10;;;;;;;;;;5154131;27;20062;-72
2023/07/17 13:26:26;;;;;;;5.40;2.00;;;;;;;;;;5141846;27;20044;-72
2023/07/17 13:28:52;;;;;;;7.13;2.03;;;;;;;;;;5138381;27;20030;-73
2023/07/17 13:31:18;;;;;;;4.80;1.77;;;;;;;;;;5141636;27;20035;-73
2023/07/17 13:33:44;;;;;;;6.05;1.80;;;;;;;;;;5139337;27;20046;-73
2023/07/17 13:36:10;;;;;;;5.32;1.63;;;;;;;;;;5149245;27;20567;-73
2023/07/17 13:38:36;;;;;;;5.15;1.63;;;;;;;;;;5134921;27;20035;-74
2023/07/17 13:41:02;;;;;;;4.00;1.60;;;;;;;;;;5121220;27;20297;-77
2023/07/17 13:43:28;;;;;;;3.47;1.50;;;;;;;;;;5145023;27;20031;-81
2023/07/17 13:45:54;;;;;;;4.43;1.90;;;;;;;;;;5108845;27;20039;-76
2023/07/17 13:48:20;;;;;;;6.95;2.05;;;;;;;;;;5135571;27;20119;-76
2023/07/17 13:50:46;;;;;;;7.07;1.77;;;;;;;;;;5123037;27;20042;-74
2023/07/17 13:53:13;;;;;;;6.38;2.10;;;;;;;;;;5146594;27;20023;-65
2023/07/17 13:55:39;;;;;;;4.10;1.83;;;;;;;;;;5147734;27;20475;-66
2023/07/17 13:58:05;;;;;;;6.22;2.10;;;;;;;;;;5118731;27;20034;-66
2023/07/17 14:00:31;;;;;;;4.78;2.00;;;;;;;;;;5121418;27;20387;-65
2023/07/17 14:02:58;;;;;;;7.03;2.08;;;;;;;;;;5145134;27;20035;-66
2023/07/17 14:05:24;;;;;;;7.22;2.42;;;;;;;;;;5152407;27;20390;-67
2023/07/17 14:07:50;;;;;;;7.88;2.10;;;;;;;;;;5109780;27;20099;-66
2023/07/17 14:10:16;;;;;;;5.57;2.03;;;;;;;;;;5152924;27;20027;-66
2023/07/17 14:12:42;;;;;;;7.43;2.20;;;;;;;;;;5147401;27;20031;-66
2023/07/17 14:15:09;;;;;;;6.78;2.00;;;;;;;;;;5151886;27;20125;-66
2023/07/17 14:17:35;;;;;;;5.32;1.90;;;;;;;;;;5145077;27;20046;-66
2023/07/17 14:20:01;;;;;;;10.93;2.10;;;;;;;;;;5149019;27;20085;-66
2023/07/17 14:22:27;;;;;;;6.15;1.92;;;;;;;;;;5134117;27;20039;-76
2023/07/17 14:24:53;;;;;;;5.47;2.10;;;;;;;;;;5153441;27;20133;-76
2023/07/17 14:27:19;;;;;;;5.90;2.00;;;;;;;;;;5142108;27;20586;-76
2023/07/17 14:29:46;;;;;;;7.60;1.92;;;;;;;;;;5143629;27;20522;-76
2023/07/17 14:32:12;;;;;;;7.97;2.00;;;;;;;;;;5145389;27;20037;-75
2023/07/17 14:34:42;;;;;;;7.32;2.35;;;;;;;;;;5126761;27;20035;-76